• Join FlightAware (Why Join?)
  • Login
  • US Flag 
02:53PM EDT


 

Airport Tracker/Info


-or-


 

Live Flight TrackerFlight Track Log ✈ EGF4432 ✈ 03-May-2013 ✈ KDCA - KBNA

Flight Track Log - Related Links

Times and Time Zones

All times are in EDT time to prevent confusion due to time zone crossing. See the EGF4432 flight status page for this flight to view local times or setup timezone preferences in your user account.

Time Position Orientation Groundspeed Altitude Reporting Facility
EDT Latitude Longitude Course Direction KTS MPH feet Rate Location/Type
06:14PM 38.8167 -77.0333 270° West 167 192 1,400  Level Potomac TRACON
06:15PM 38.7667 -77.0500 195° South 240 276 3,400 2,040 Climbing Potomac TRACON
06:16PM 38.7500 -77.1500 258° West 282 325 5,800 2,220 Climbing Potomac TRACON
06:17PM 38.8500 -77.5522 270° West  Level FlightAware Approximate
06:18PM 38.8500 -77.6820 270° West  Level FlightAware Approximate
06:18PM 38.7647 -77.3781 275° West 296 341 11,000  Level Washington Center
06:19PM 38.8502 -77.8117 270° West  Level FlightAware Approximate
06:19PM 38.7775 -77.4903 278° West 306 352 13,000  Level Washington Center
06:20PM 38.7903 -77.6078 278° West 322 371 14,600 1,440 Climbing Washington Center
06:21PM 38.8025 -77.7333 277° West 343 395 16,000 1,200 Climbing Washington Center
06:22PM 38.8186 -77.8778 278° West 359 413 17,100 960 Climbing Washington Center
06:23PM 38.8328 -78.0114 278° West 378 435 18,000 780 Climbing Washington Center
06:24PM 38.8486 -78.1531 278° West 390 449 18,700 1,020 Climbing Washington Center
06:25PM 38.8558 -78.2947 274° West 402 463 20,100 1,620 Climbing Washington Center
06:26PM 38.8528 -78.4358 268° West 402 463 22,000 1,680 Climbing Washington Center
06:27PM 38.8328 -78.5736 259° West 402 463 23,500 1,380 Climbing Washington Center
06:28PM 38.8147 -78.7089 260° West 402 463 24,800 1,260 Climbing Washington Center
06:29PM 38.7964 -78.8492 261° West 402 463 26,100 1,260 Climbing Washington Center
06:30PM 38.7758 -78.9869 259° West 402 463 27,400 1,260 Climbing Washington Center
06:31PM 38.7575 -79.1217 260° West 402 463 28,700 1,320 Climbing Washington Center
06:32PM 38.7386 -79.2647 260° West 402 463 30,000 1,320 Climbing Washington Center
06:33PM 38.7217 -79.3994 261° West 402 463 31,300 960 Climbing Washington Center
06:34PM 38.7008 -79.5342 259° West 402 463 32,000 300 Climbing Washington Center
06:35PM 38.6792 -79.6792 259° West 402 463 32,000  Level Washington Center
06:36PM 38.6581 -79.8111 258° West 422 486 32,000 300 Level Washington Center
06:37PM 38.6383 -79.9533 260° West 422 486 32,700 900 Climbing Washington Center
06:38PM 38.6142 -80.0981 258° West 428 493 33,800 600 Climbing Washington Center
06:39PM 38.5914 -80.2561 260° West 423 487 34,000 60 Climbing Washington Center
06:41PM 38.5575 -80.4683 259° West 406 467 34,000  Level Indianapolis Center
06:42PM 38.5317 -80.6364 259° West 403 464 34,000  Level Indianapolis Center
06:43PM 38.5108 -80.7789 259° West 406 467 34,000  Level Indianapolis Center
06:44PM 38.5111 -80.9228 270° West 404 465 34,000  Level Indianapolis Center
06:45PM 38.5269 -81.0683 278° West 412 474 34,000  Level Indianapolis Center
06:46PM 38.5453 -81.2128 279° West 411 473 34,000  Level Indianapolis Center
06:47PM 38.5300 -81.3572 262° West 411 473 34,000  Level Indianapolis Center
06:48PM 38.4897 -81.4944 249° West 407 468 34,000  Level Indianapolis Center
06:49PM 38.4478 -81.6331 249° West 412 474 34,000  Level Indianapolis Center
06:50PM 38.3969 -81.7992 249° West 416 479 34,000  Level Indianapolis Center
06:51PM 38.3556 -81.9375 249° West 416 479 34,000  Level Indianapolis Center
06:52PM 38.3125 -82.0781 249° West 422 486 34,000  Level Indianapolis Center
06:53PM 38.2700 -82.2194 249° West 426 490 34,000  Level Indianapolis Center
06:54PM 38.2264 -82.3586 248° West 424 488 34,000 -60 Level Indianapolis Center
06:55PM 38.1667 -82.5006 242° Southwest 427 491 33,900 -300 Descending Indianapolis Center
06:57PM 38.1067 -82.6281 239° Southwest 422 486 33,400 -540 Descending Indianapolis Center
06:58PM 38.0472 -82.7508 238° Southwest 413 475 32,900 -540 Descending Indianapolis Center
06:59PM 37.9778 -82.9003 240° Southwest 422 486 32,400 -480 Descending Indianapolis Center
07:00PM 37.9153 -83.0294 239° Southwest 430 495 32,000 -240 Descending Indianapolis Center
07:01PM 37.8556 -83.1594 240° Southwest 428 493 32,000  Level Indianapolis Center
07:02PM 37.7933 -83.2858 238° Southwest 425 489 32,000  Level Indianapolis Center
07:03PM 37.7339 -83.4128 239° Southwest 423 487 32,000  Level Indianapolis Center
07:04PM 37.6633 -83.5583 239° Southwest 419 482 32,000  Level Indianapolis Center
07:05PM 37.6031 -83.6828 239° Southwest 418 481 32,000  Level Indianapolis Center
07:06PM 37.5419 -83.8083 238° Southwest 419 482 32,000  Level Indianapolis Center
07:07PM 37.4808 -83.9342 239° Southwest 422 486 32,000  Level Indianapolis Center
07:08PM 37.4194 -84.0600 238° Southwest 422 486 32,000  Level Indianapolis Center
07:09PM 37.3586 -84.1856 239° Southwest 420 483 32,000  Level Indianapolis Center
07:10PM 37.2867 -84.3322 238° Southwest 422 486 32,000 -840 Level Indianapolis Center
07:11PM 37.2239 -84.4556 237° Southwest 422 486 30,300 -1,860 Descending Indianapolis Center
07:12PM 37.1650 -84.5781 239° Southwest 411 473 28,300 -1,620 Descending Indianapolis Center
07:13PM 37.1033 -84.6994 238° Southwest 413 475 27,000 -1,140 Descending Indianapolis Center
07:14PM 37.0436 -84.8203 238° Southwest 408 470 26,000 -1,140 Descending Indianapolis Center
07:15PM 36.9747 -84.9589 238° Southwest 406 467 24,700 -1,140 Descending Indianapolis Center
07:16PM 36.9156 -85.0767 238° Southwest 402 463 23,700 -1,080 Descending Indianapolis Center
07:17PM 36.8561 -85.1956 238° Southwest 404 465 22,600 -840 Descending Indianapolis Center
07:18PM 36.7972 -85.3108 237° Southwest 398 458 22,000 -300 Descending Indianapolis Center
07:19PM 36.7283 -85.4461 238° Southwest 401 461 22,000 -360 Level Memphis Center
07:20PM 36.6728 -85.5683 240° Southwest 412 474 21,300 -1,740 Descending Memphis Center
07:21PM 36.6186 -85.6803 239° Southwest 407 468 18,600 -2,580 Descending Memphis Center
07:22PM 36.5683 -85.7864 239° Southwest 383 441 16,200 -2,340 Descending Memphis Center
07:23PM 36.5200 -85.8925 240° Southwest 364 419 14,000 -2,100 Descending Memphis Center
07:24PM 36.4714 -85.9906 238° Southwest 345 397 12,000 -1,860 Descending Memphis Center
07:25PM 36.4328 -86.0753 240° Southwest 311 358 10,300 -1,320 Descending Memphis Center
07:26PM 36.4019 -86.1517 243° Southwest 288 331 9,400 -1,080 Descending Memphis Center
07:27PM 36.3694 -86.2333 244° Southwest 281 323 8,200 -1,260 Descending Memphis Center
07:28PM 36.3325 -86.3203 242° Southwest 281 323 6,900 -1,380 Descending Memphis Center
07:29PM 36.2997 -86.4042 244° Southwest 275 316 5,500 -1,380 Descending Memphis Center
07:30PM 36.2669 -86.4803 242° Southwest 269 310 4,200 -1,380 Descending Memphis Center
07:31PM 36.2317 -86.5592 241° Southwest 257 296 2,800 -1,440 Descending Memphis Center